createdAt,value
2019-02-08T00:00:00.081Z,1.79
2019-02-08T00:02:32.812Z,1.66
2019-02-08T00:05:04.860Z,1.62
2019-02-08T00:07:35.313Z,1.55
2019-02-08T00:10:06.856Z,1.61
2019-02-08T00:12:37.260Z,1.61
2019-02-08T00:15:08.021Z,1.54
2019-02-08T00:17:38.875Z,1.50
2019-02-08T00:20:10.392Z,1.56
2019-02-08T00:22:42.033Z,1.63
2019-02-08T00:25:15.934Z,1.60
2019-02-08T00:27:48.164Z,1.59
2019-02-08T00:30:21.051Z,1.52
2019-02-08T00:32:53.303Z,1.52
2019-02-08T00:35:24.387Z,1.51
2019-02-08T00:37:55.603Z,1.61
2019-02-08T00:40:28.883Z,1.59
2019-02-08T00:43:00.273Z,1.54
2019-02-08T00:45:31.287Z,1.48
2019-02-08T00:48:02.312Z,1.42
2019-02-08T00:50:33.237Z,1.44
2019-02-08T00:53:06.375Z,1.46
2019-02-08T00:55:39.009Z,1.55
2019-02-08T00:58:11.413Z,1.59
2019-02-08T01:00:42.410Z,1.55
2019-02-08T01:03:13.554Z,1.54
2019-02-08T01:05:44.287Z,1.51
2019-02-08T01:08:15.467Z,1.56
2019-02-08T01:10:46.480Z,1.61
2019-02-08T01:13:17.445Z,1.57
2019-02-08T01:15:50.506Z,1.51
2019-02-08T01:18:21.751Z,1.57
2019-02-08T01:20:52.399Z,1.53
2019-02-08T01:23:23.535Z,1.48
2019-02-08T01:25:56.145Z,1.48
2019-02-08T01:28:28.537Z,1.53
2019-02-08T01:30:59.413Z,1.50
2019-02-08T01:33:32.433Z,1.48
2019-02-08T01:36:03.598Z,1.48
2019-02-08T01:38:34.496Z,1.40
2019-02-08T01:41:06.839Z,1.43
2019-02-08T01:43:38.716Z,1.38
2019-02-08T01:46:10.485Z,1.47
2019-02-08T01:48:41.670Z,1.50
2019-02-08T01:51:12.739Z,1.49
2019-02-08T01:53:48.580Z,1.48
2019-02-08T01:56:17.528Z,1.47
2019-02-08T01:58:48.605Z,1.51
2019-02-08T02:01:21.361Z,1.55
2019-02-08T02:03:53.734Z,1.52
2019-02-08T02:06:25.690Z,1.57
2019-02-08T02:08:57.698Z,1.59
2019-02-08T02:11:29.613Z,1.58
2019-02-08T02:14:00.765Z,1.59
2019-02-08T02:16:31.597Z,1.60
2019-02-08T02:19:02.768Z,1.66
2019-02-08T02:21:33.729Z,1.64
2019-02-08T02:24:04.754Z,1.65
2019-02-08T02:26:35.594Z,1.67
2019-02-08T02:29:08.762Z,1.71
2019-02-08T02:31:40.801Z,1.90
2019-02-08T02:34:15.471Z,1.91
2019-02-08T02:36:47.769Z,1.86
2019-02-08T02:39:18.751Z,1.80
2019-02-08T02:41:49.916Z,1.86
2019-02-08T02:44:20.984Z,1.89
2019-02-08T02:46:51.893Z,1.91
2019-02-08T02:49:22.836Z,1.86
2019-02-08T02:51:53.873Z,1.82
2019-02-08T02:54:24.902Z,1.89
2019-02-08T02:56:55.910Z,1.96
2019-02-08T02:59:26.793Z,1.92
2019-02-08T03:01:57.855Z,1.92
2019-02-08T03:04:28.992Z,1.94
2019-02-08T03:07:00.059Z,1.95
2019-02-08T03:09:30.941Z,1.99
2019-02-08T03:12:01.927Z,2.09
2019-02-08T03:14:33.340Z,2.08
2019-02-08T03:17:03.992Z,2.15
2019-02-08T03:19:34.920Z,2.13
2019-02-08T03:22:06.004Z,2.05
2019-02-08T03:24:36.387Z,1.98
2019-02-08T03:27:08.080Z,2.01
2019-02-08T03:29:39.102Z,1.94
2019-02-08T03:32:10.188Z,1.97
2019-02-08T03:34:43.166Z,1.97
2019-02-08T03:37:15.141Z,2.00
2019-02-08T03:39:46.135Z,2.07
2019-02-08T03:42:17.042Z,2.02
2019-02-08T03:44:48.023Z,1.95
2019-02-08T03:47:19.128Z,1.89
2019-02-08T03:49:50.192Z,1.93
2019-02-08T03:52:21.110Z,1.84
2019-02-08T03:54:52.077Z,1.81
2019-02-08T03:57:23.295Z,1.88
2019-02-08T03:59:56.191Z,1.82
2019-02-08T04:02:27.230Z,1.91
2019-02-08T04:04:58.315Z,1.93
2019-02-08T04:07:29.109Z,1.99
2019-02-08T04:10:00.247Z,1.92
2019-02-08T04:12:31.306Z,1.87
2019-02-08T04:15:02.055Z,1.89
2019-02-08T04:17:33.278Z,1.90
2019-02-08T04:20:04.840Z,1.83
2019-02-08T04:22:36.869Z,1.90
2019-02-08T04:25:10.049Z,1.89
2019-02-08T04:27:43.973Z,1.79
2019-02-08T04:30:17.877Z,1.81
2019-02-08T04:32:48.238Z,1.77
2019-02-08T04:35:19.655Z,1.81
2019-02-08T04:37:50.339Z,1.93
2019-02-08T04:40:21.501Z,1.98
2019-02-08T04:42:52.309Z,1.97
2019-02-08T04:45:25.268Z,1.99
2019-02-08T04:47:57.375Z,1.93
2019-02-08T04:50:28.374Z,1.85
2019-02-08T04:52:59.744Z,1.97
2019-02-08T04:55:30.512Z,2.04
2019-02-08T04:58:02.344Z,2.24
2019-02-08T05:00:37.040Z,2.22
2019-02-08T05:03:09.338Z,2.56
2019-02-08T05:05:42.453Z,2.65
2019-02-08T05:08:13.454Z,2.61
2019-02-08T05:10:45.252Z,2.80
2019-02-08T05:13:16.063Z,2.87
2019-02-08T05:15:47.018Z,2.89
2019-02-08T05:18:17.533Z,2.87
2019-02-08T05:20:48.505Z,2.83
2019-02-08T05:23:19.620Z,3.12
2019-02-08T05:25:50.823Z,3.12
2019-02-08T05:28:22.552Z,3.32
2019-02-08T05:30:53.489Z,3.43
2019-02-08T05:33:24.739Z,3.43
2019-02-08T05:35:55.621Z,3.43
2019-02-08T05:38:26.514Z,3.50
2019-02-08T05:40:57.748Z,3.50
2019-02-08T05:43:28.681Z,3.60
2019-02-08T05:45:59.870Z,3.60
2019-02-08T05:48:30.580Z,3.62
2019-02-08T05:51:01.605Z,3.70
2019-02-08T05:53:32.683Z,3.62
2019-02-08T05:56:03.652Z,3.73
2019-02-08T05:58:34.567Z,3.57
2019-02-08T06:01:05.775Z,3.57
2019-02-08T06:03:36.453Z,3.59
2019-02-08T06:06:07.675Z,3.64
2019-02-08T06:08:38.573Z,3.64
2019-02-08T06:11:09.572Z,3.64
2019-02-08T06:13:40.481Z,3.67
2019-02-08T06:16:11.568Z,3.67
2019-02-08T06:18:42.375Z,3.72
2019-02-08T06:21:13.052Z,3.73
2019-02-08T06:23:44.483Z,3.64
2019-02-08T06:26:14.978Z,3.75
2019-02-08T06:28:45.791Z,3.81
2019-02-08T06:31:16.731Z,3.83
2019-02-08T06:33:48.341Z,3.86
2019-02-08T06:36:18.923Z,3.89
2019-02-08T06:38:50.349Z,3.89
2019-02-08T06:41:20.756Z,4.08
2019-02-08T06:43:51.844Z,4.35
2019-02-08T06:46:23.246Z,4.72
2019-02-08T06:48:53.975Z,4.72
2019-02-08T06:51:25.032Z,4.79
2019-02-08T06:53:55.942Z,4.79
2019-02-08T06:56:44.569Z,4.80
2019-02-08T06:59:26.683Z,4.71
2019-02-08T07:02:24.087Z,4.71
2019-02-08T07:05:14.220Z,4.67
2019-02-08T07:07:51.918Z,4.51
2019-02-08T07:10:41.936Z,4.51
2019-02-08T07:13:24.156Z,4.57
2019-02-08T07:16:11.670Z,4.52
2019-02-08T07:19:00.988Z,4.55
2019-02-08T07:21:37.964Z,4.52
2019-02-08T07:24:35.849Z,4.45
2019-02-08T07:27:14.603Z,4.67
2019-02-08T07:30:17.089Z,4.67
2019-02-08T07:33:09.610Z,4.83
2019-02-08T07:35:58.236Z,4.79
2019-02-08T07:38:50.427Z,4.83
2019-02-08T07:41:39.060Z,4.94
2019-02-08T07:44:20.872Z,5.07
2019-02-08T07:47:18.752Z,5.15
2019-02-08T07:50:07.117Z,5.26
2019-02-08T07:52:57.310Z,5.36
2019-02-08T07:55:47.155Z,5.36
2019-02-08T07:58:51.173Z,5.39
2019-02-08T08:01:41.292Z,5.50
2019-02-08T08:04:31.600Z,5.52
2019-02-08T08:07:25.048Z,5.70
2019-02-08T08:10:11.250Z,5.91
2019-02-08T08:12:55.084Z,6.01
2019-02-08T08:15:45.184Z,5.84
2019-02-08T08:18:34.595Z,5.97
2019-02-08T08:21:33.707Z,6.13
2019-02-08T08:24:25.564Z,6.21
2019-02-08T08:27:17.634Z,6.15
2019-02-08T08:30:12.550Z,6.39
2019-02-08T08:33:03.283Z,6.17
2019-02-08T08:36:17.090Z,6.38
2019-02-08T08:39:14.272Z,6.36
2019-02-08T08:42:36.162Z,6.48
2019-02-08T08:45:27.404Z,6.43
2019-02-08T08:48:22.755Z,6.53
2019-02-08T08:51:27.098Z,6.57
2019-02-08T08:54:23.857Z,6.69
2019-02-08T08:57:31.122Z,6.93
2019-02-08T09:00:40.612Z,6.99
2019-02-08T09:04:02.349Z,6.95
2019-02-08T09:07:26.368Z,6.97
2019-02-08T09:10:51.350Z,6.85
2019-02-08T09:14:14.082Z,6.91
2019-02-08T09:17:36.937Z,6.80
2019-02-08T09:20:43.763Z,6.86
2019-02-08T09:23:41.125Z,6.77
2019-02-08T09:26:50.087Z,6.78
2019-02-08T09:30:01.061Z,6.74
2019-02-08T09:33:21.694Z,6.63
2019-02-08T09:36:50.713Z,6.60
2019-02-08T09:39:58.209Z,6.69
2019-02-08T09:43:33.411Z,6.86
2019-02-08T09:47:01.716Z,6.97
2019-02-08T09:50:04.450Z,7.13
2019-02-08T09:52:52.867Z,7.30
2019-02-08T09:56:06.136Z,7.31
2019-02-08T09:59:09.654Z,7.50
2019-02-08T10:02:17.979Z,7.28
2019-02-08T10:05:38.456Z,7.44
2019-02-08T10:08:44.174Z,7.56
2019-02-08T10:11:52.691Z,7.67
2019-02-08T10:15:16.054Z,7.57
2019-02-08T10:18:27.174Z,7.46
2019-02-08T10:21:45.415Z,7.40
2019-02-08T10:25:30.880Z,7.47
2019-02-08T10:28:38.102Z,7.70
2019-02-08T10:31:45.135Z,7.80
2019-02-08T10:34:56.169Z,7.84
2019-02-08T10:38:01.943Z,7.99
2019-02-08T10:41:14.327Z,8.12
2019-02-08T10:44:37.646Z,8.33
2019-02-08T10:47:50.791Z,8.24
2019-02-08T10:51:07.686Z,8.28
2019-02-08T10:54:16.479Z,8.55
2019-02-08T10:57:31.510Z,8.51
2019-02-08T11:00:42.408Z,8.60
2019-02-08T11:03:52.350Z,8.66
2019-02-08T11:07:28.025Z,8.74
2019-02-08T11:10:29.556Z,8.65
2019-02-08T11:13:51.492Z,8.63
2019-02-08T11:17:32.028Z,8.77
2019-02-08T11:20:03.171Z,8.80
2019-02-08T11:22:35.484Z,8.84
2019-02-08T11:25:08.463Z,8.83
2019-02-08T11:27:40.310Z,8.98
2019-02-08T11:30:15.042Z,8.88
2019-02-08T11:32:48.260Z,8.99
2019-02-08T11:35:19.233Z,8.98
2019-02-08T11:37:50.150Z,8.82
2019-02-08T11:40:24.502Z,8.81
2019-02-08T11:42:55.237Z,8.90
2019-02-08T11:45:28.382Z,8.97
2019-02-08T11:47:59.287Z,9.07
2019-02-08T11:50:31.011Z,8.94
2019-02-08T11:53:01.859Z,9.03
2019-02-08T11:55:32.366Z,8.93
2019-02-08T11:58:03.818Z,8.97
2019-02-08T12:00:37.738Z,9.07
2019-02-08T12:03:08.344Z,9.17
2019-02-08T12:05:40.424Z,9.11
2019-02-08T12:08:11.388Z,9.23
2019-02-08T12:10:42.516Z,9.40
2019-02-08T12:13:15.320Z,9.37
2019-02-08T12:15:48.037Z,9.33
2019-02-08T12:18:20.419Z,9.22
2019-02-08T12:20:51.548Z,9.30
2019-02-08T12:23:22.438Z,9.39
2019-02-08T12:25:53.318Z,9.34
2019-02-08T12:28:25.204Z,9.45
2019-02-08T12:30:58.558Z,9.54
2019-02-08T12:33:29.498Z,9.50
2019-02-08T12:36:00.405Z,9.61
2019-02-08T12:38:32.831Z,9.57
2019-02-08T12:41:09.773Z,9.73
2019-02-08T12:43:37.598Z,9.67
2019-02-08T12:46:10.639Z,9.59
2019-02-08T12:48:41.475Z,9.47
2019-02-08T12:51:12.779Z,9.62
2019-02-08T12:53:47.166Z,9.60
2019-02-08T12:56:19.670Z,9.66
2019-02-08T12:58:50.835Z,9.74
2019-02-08T13:01:21.594Z,9.78
2019-02-08T13:03:52.522Z,9.81
2019-02-08T13:06:23.738Z,9.72
2019-02-08T13:08:54.635Z,9.79
2019-02-08T13:11:27.608Z,9.94
2019-02-08T13:13:59.521Z,9.93
2019-02-08T13:16:31.690Z,10.02
2019-02-08T13:19:04.571Z,10.09
2019-02-08T13:21:35.680Z,10.09
2019-02-08T13:24:06.514Z,9.94
2019-02-08T13:26:37.105Z,9.99
2019-02-08T13:29:08.472Z,9.99
2019-02-08T13:31:39.454Z,10.12
2019-02-08T13:34:10.438Z,10.23
2019-02-08T13:36:41.710Z,10.23
2019-02-08T13:39:12.473Z,10.22
2019-02-08T13:41:43.006Z,10.43
2019-02-08T13:44:13.776Z,10.57
2019-02-08T13:46:45.311Z,10.68
2019-02-08T13:49:15.875Z,10.54
2019-02-08T13:51:47.262Z,10.61
2019-02-08T13:54:17.860Z,10.62
2019-02-08T13:56:49.091Z,10.72
2019-02-08T13:59:19.946Z,10.86
2019-02-08T14:01:51.597Z,10.93
2019-02-08T14:04:22.116Z,10.91
2019-02-08T14:06:53.028Z,11.07
2019-02-08T14:09:23.901Z,11.04
2019-02-08T14:11:56.412Z,11.19
2019-02-08T14:14:28.886Z,11.18
2019-02-08T14:16:59.984Z,11.07
2019-02-08T14:19:30.935Z,11.19
2019-02-08T14:22:01.954Z,11.17
2019-02-08T14:24:33.066Z,11.35
2019-02-08T14:27:08.547Z,11.84
2019-02-08T14:29:36.053Z,12.07
2019-02-08T14:32:08.920Z,12.72
2019-02-08T14:34:43.581Z,13.23
2019-02-08T14:37:13.975Z,14.02
2019-02-08T14:39:45.928Z,14.40
2019-02-08T14:42:19.250Z,14.82
2019-02-08T14:44:50.072Z,14.97
2019-02-08T14:47:23.031Z,15.20
2019-02-08T14:49:54.075Z,15.57
2019-02-08T14:52:25.176Z,15.87
2019-02-08T14:54:56.025Z,16.10
2019-02-08T14:57:29.475Z,16.28
2019-02-08T15:00:02.206Z,16.69
2019-02-08T15:02:34.204Z,16.76
2019-02-08T15:05:07.939Z,17.09
2019-02-08T15:07:40.186Z,17.25
2019-02-08T15:10:17.367Z,17.41
2019-02-08T15:12:48.418Z,17.10
2019-02-08T15:15:19.245Z,16.58
2019-02-08T15:17:50.348Z,16.06
2019-02-08T15:20:26.131Z,15.52
2019-02-08T15:22:58.232Z,15.58
2019-02-08T15:25:29.467Z,15.22
2019-02-08T15:28:00.199Z,15.34
2019-02-08T15:30:32.485Z,15.03
2019-02-08T15:33:05.593Z,14.57
2019-02-08T15:35:36.438Z,14.08
2019-02-08T15:38:07.483Z,13.29
2019-02-08T15:40:45.513Z,12.89
2019-02-08T15:43:19.082Z,12.61
2019-02-08T15:46:10.647Z,12.19
2019-02-08T15:48:43.313Z,11.65
2019-02-08T15:51:15.299Z,11.01
2019-02-08T15:53:46.554Z,10.36
2019-02-08T15:56:17.581Z,9.84
2019-02-08T15:58:49.415Z,9.27
2019-02-08T16:01:21.318Z,8.79
2019-02-08T16:03:52.485Z,8.43
2019-02-08T16:06:23.390Z,8.16
2019-02-08T16:08:54.504Z,7.95
2019-02-08T16:11:25.362Z,7.66
2019-02-08T16:13:56.473Z,7.33
2019-02-08T16:16:27.366Z,7.18
2019-02-08T16:18:58.196Z,6.98
2019-02-08T16:21:29.175Z,6.75
2019-02-08T16:23:59.933Z,6.50
2019-02-08T16:26:30.433Z,6.40
2019-02-08T16:29:01.552Z,6.24
2019-02-08T16:31:32.468Z,6.17
2019-02-08T16:34:04.793Z,6.10
2019-02-08T16:36:36.804Z,5.98
2019-02-08T16:39:10.352Z,5.82
2019-02-08T16:41:42.789Z,5.73
2019-02-08T16:44:13.541Z,5.68
2019-02-08T16:46:44.649Z,5.50
2019-02-08T16:49:15.625Z,5.36
2019-02-08T16:51:46.524Z,5.24
2019-02-08T16:54:17.725Z,5.10
2019-02-08T16:56:48.952Z,5.06
2019-02-08T16:59:19.577Z,5.03
2019-02-08T17:01:50.716Z,4.89
2019-02-08T17:04:21.623Z,4.89
2019-02-08T17:06:52.699Z,4.95
2019-02-08T17:09:25.599Z,4.94
2019-02-08T17:11:58.675Z,4.83
2019-02-08T17:14:30.647Z,4.73
2019-02-08T17:17:01.720Z,4.77
2019-02-08T17:19:32.737Z,4.60
2019-02-08T17:22:04.779Z,4.43
2019-02-08T17:24:36.943Z,4.33
2019-02-08T17:27:08.774Z,4.20
2019-02-08T17:29:39.916Z,4.16
2019-02-08T17:32:10.756Z,4.25
2019-02-08T17:34:41.774Z,4.19
2019-02-08T17:37:12.790Z,4.10
2019-02-08T17:39:43.643Z,4.02
2019-02-08T17:42:14.552Z,3.85
2019-02-08T17:44:45.390Z,3.85
2019-02-08T17:47:16.252Z,3.86
2019-02-08T17:49:47.391Z,3.82
2019-02-08T17:52:17.861Z,3.79
2019-02-08T17:54:49.142Z,3.79
2019-02-08T17:57:19.999Z,3.74
2019-02-08T17:59:51.007Z,3.64
2019-02-08T18:02:21.938Z,3.45
2019-02-08T18:04:52.909Z,3.45
2019-02-08T18:07:23.733Z,3.41
2019-02-08T18:09:55.232Z,3.43
2019-02-08T18:12:32.313Z,3.43
2019-02-08T18:14:59.046Z,3.37
2019-02-08T18:17:30.131Z,3.37
2019-02-08T18:20:00.959Z,3.41
2019-02-08T18:22:31.981Z,3.37
2019-02-08T18:25:03.423Z,3.22
2019-02-08T18:27:34.006Z,3.22
2019-02-08T18:30:06.610Z,3.08
2019-02-08T18:32:37.074Z,3.08
2019-02-08T18:35:10.113Z,2.94
2019-02-08T18:37:43.129Z,2.94
2019-02-08T18:40:16.648Z,2.87
2019-02-08T18:42:47.386Z,2.87
2019-02-08T18:45:21.341Z,2.81
2019-02-08T18:47:53.189Z,2.81
2019-02-08T18:50:29.574Z,2.70
2019-02-08T18:53:01.246Z,2.61
2019-02-08T18:55:32.233Z,2.61
2019-02-08T18:58:03.275Z,2.71
2019-02-08T19:00:40.337Z,2.71
2019-02-08T19:03:12.286Z,2.81
2019-02-08T19:05:43.133Z,2.78
2019-02-08T19:08:16.393Z,2.67
2019-02-08T19:10:47.605Z,2.54
2019-02-08T19:13:18.350Z,2.52
2019-02-08T19:15:49.346Z,2.51
2019-02-08T19:18:20.182Z,2.38
2019-02-08T19:20:51.291Z,2.38
2019-02-08T19:23:22.168Z,2.49
2019-02-08T19:25:53.267Z,2.38
2019-02-08T19:28:26.554Z,2.38
2019-02-08T19:30:58.372Z,2.21
2019-02-08T19:33:29.394Z,2.21
2019-02-08T19:36:00.344Z,2.17
2019-02-08T19:38:31.478Z,2.04
2019-02-08T19:41:02.422Z,1.95
2019-02-08T19:43:33.475Z,1.90
2019-02-08T19:46:04.499Z,1.83
2019-02-08T19:48:37.117Z,1.76
2019-02-08T19:51:07.589Z,1.74
2019-02-08T19:53:37.988Z,1.73
2019-02-08T19:56:10.399Z,1.67
2019-02-08T19:58:43.491Z,1.62
2019-02-08T20:01:15.622Z,1.56
2019-02-08T20:03:47.547Z,1.58
2019-02-08T20:06:19.590Z,1.59
2019-02-08T20:08:51.436Z,1.56
2019-02-08T20:11:22.600Z,1.49
2019-02-08T20:13:54.461Z,1.51
2019-02-08T20:16:25.626Z,1.57
2019-02-08T20:18:58.362Z,1.50
2019-02-08T20:21:29.134Z,1.39
2019-02-08T20:23:59.550Z,1.31
2019-02-08T20:26:30.483Z,1.28
2019-02-08T20:29:01.617Z,1.25
2019-02-08T20:31:32.842Z,1.21
2019-02-08T20:34:03.924Z,1.29
2019-02-08T20:36:34.323Z,1.28
2019-02-08T20:39:08.415Z,1.25
2019-02-08T20:41:40.734Z,1.26
2019-02-08T20:44:13.697Z,1.27
2019-02-08T20:46:44.657Z,1.25
2019-02-08T20:49:15.689Z,1.29
2019-02-08T20:51:46.736Z,1.27
2019-02-08T20:54:17.779Z,1.22
2019-02-08T20:56:49.214Z,1.17
2019-02-08T20:59:19.878Z,1.24
2019-02-08T21:01:50.707Z,1.22
2019-02-08T21:04:21.654Z,1.29
2019-02-08T21:06:52.770Z,1.26
2019-02-08T21:09:23.902Z,1.23
2019-02-08T21:11:54.754Z,1.16
2019-02-08T21:14:25.772Z,1.16
2019-02-08T21:16:56.818Z,1.11
2019-02-08T21:19:27.771Z,1.17
2019-02-08T21:21:58.994Z,1.22
2019-02-08T21:24:29.755Z,1.15
2019-02-08T21:27:02.788Z,1.08
2019-02-08T21:29:34.801Z,0.99
2019-02-08T21:32:05.967Z,0.94
2019-02-08T21:34:36.967Z,0.97
2019-02-08T21:37:07.811Z,0.96
2019-02-08T21:39:38.183Z,1.02
2019-02-08T21:42:09.923Z,0.98
2019-02-08T21:44:40.987Z,0.92
2019-02-08T21:47:11.977Z,0.92
2019-02-08T21:49:43.976Z,0.92
2019-02-08T21:52:16.863Z,0.80
2019-02-08T21:54:49.968Z,0.68
2019-02-08T21:57:22.722Z,0.66
2019-02-08T21:59:56.232Z,0.53
2019-02-08T22:02:27.143Z,0.46
2019-02-08T22:05:01.177Z,0.44
2019-02-08T22:07:34.979Z,0.38
2019-02-08T22:10:06.539Z,0.34
2019-02-08T22:12:36.999Z,0.32
2019-02-08T22:15:11.290Z,0.41
2019-02-08T22:17:43.410Z,0.40
2019-02-08T22:20:16.969Z,0.38
2019-02-08T22:22:50.044Z,0.39
2019-02-08T22:25:24.181Z,0.34
2019-02-08T22:27:57.285Z,0.39
2019-02-08T22:30:28.135Z,0.34
2019-02-08T22:32:59.287Z,0.26
2019-02-08T22:35:31.234Z,0.31
2019-02-08T22:38:02.155Z,0.24
2019-02-08T22:40:34.215Z,0.24
2019-02-08T22:43:06.284Z,0.18
2019-02-08T22:45:38.891Z,0.10
2019-02-08T22:48:11.229Z,0.14
2019-02-08T22:50:42.662Z,0.06
2019-02-08T22:53:13.289Z,0.02
2019-02-08T22:55:44.527Z,-0.05
2019-02-08T22:58:15.289Z,-0.03
2019-02-08T23:01:30.675Z,-0.06
2019-02-08T23:04:03.373Z,-0.11
2019-02-08T23:06:33.811Z,-0.16
2019-02-08T23:09:06.155Z,-0.22
2019-02-08T23:11:37.303Z,-0.24
2019-02-08T23:14:09.450Z,-0.22
2019-02-08T23:16:41.201Z,-0.26
2019-02-08T23:19:14.374Z,-0.29
2019-02-08T23:21:45.310Z,-0.31
2019-02-08T23:24:16.513Z,-0.33
2019-02-08T23:26:47.428Z,-0.36
2019-02-08T23:29:19.413Z,-0.39
2019-02-08T23:31:52.433Z,-0.40
2019-02-08T23:34:23.464Z,-0.37
2019-02-08T23:36:54.346Z,-0.34
2019-02-08T23:39:27.441Z,-0.36
2019-02-08T23:41:59.460Z,-0.40
2019-02-08T23:44:31.732Z,-0.43
2019-02-08T23:47:04.150Z,-0.46
2019-02-08T23:49:35.019Z,-0.52
2019-02-08T23:52:06.081Z,-0.54
2019-02-08T23:54:37.051Z,-0.60
2019-02-08T23:57:08.059Z,-0.62
2019-02-08T23:59:39.134Z,-0.64
